Time;durP1;ratioP1;P1;durP2;ratioP2;P2;SDS_P1;SDS_P2;PMS_P1;PMS_P2;Temp;Humidity;BMP_temperature;BMP_pressure;BME280_temperature;BME280_humidity;BME280_pressure;Samples;Min_cycle;Max_cycle;Signal;HPM_P1;HPM_P2
2021/07/17 00:00:29;;;;;;;4.13;3.70;;;20.10;99.90;;;;;;5013649;28;20176;-61
2021/07/17 00:02:55;;;;;;;5.03;3.37;;;20.10;99.90;;;;;;5015350;28;20205;-61
2021/07/17 00:05:21;;;;;;;3.70;3.40;;;20.10;99.90;;;;;;5018316;28;20301;-61
2021/07/17 00:07:48;;;;;;;3.70;3.40;;;20.10;99.90;;;;;;5016550;28;20289;-59
2021/07/17 00:10:25;;;;;;;3.70;3.40;;;20.10;99.90;;;;;;5017732;28;20196;-62
2021/07/17 00:12:51;;;;;;;3.67;3.37;;;20.10;99.90;;;;;;5017423;28;20235;-60
2021/07/17 00:15:21;;;;;;;3.90;3.50;;;19.90;99.90;;;;;;5017613;28;20179;-62
2021/07/17 00:17:46;;;;;;;4.00;3.70;;;19.90;99.90;;;;;;5017351;28;20195;-62
2021/07/17 00:20:14;;;;;;;3.60;3.30;;;19.90;99.90;;;;;;5017540;28;20183;-61
2021/07/17 00:22:40;;;;;;;3.60;3.30;;;19.90;99.90;;;;;;5017527;28;20204;-59
2021/07/17 00:25:14;;;;;;;3.83;3.43;;;19.90;99.90;;;;;;5017208;28;20260;-59
2021/07/17 00:27:39;;;;;;;4.70;3.53;;;19.90;99.90;;;;;;5018017;28;20206;-60
2021/07/17 00:30:06;;;;;;;4.13;3.40;;;19.90;99.90;;;;;;5036845;28;20169;-62
2021/07/17 00:32:32;;;;;;;3.70;3.40;;;19.80;99.90;;;;;;5036697;28;20168;-61
2021/07/17 00:34:57;;;;;;;3.50;3.30;;;19.80;99.90;;;;;;5036864;28;20180;-60
2021/07/17 00:37:23;;;;;;;3.30;3.00;;;19.70;99.90;;;;;;5036916;28;20204;-62
2021/07/17 00:39:48;;;;;;;3.87;3.50;;;19.60;99.90;;;;;;5036759;28;20573;-59
2021/07/17 00:42:14;;;;;;;5.17;3.30;;;19.60;99.90;;;;;;5036419;28;20227;-58
2021/07/17 00:44:39;;;;;;;4.90;3.57;;;19.60;99.90;;;;;;5036615;28;20175;-60
2021/07/17 00:47:07;;;;;;;3.50;3.30;;;19.60;99.90;;;;;;5036488;28;20667;-60
2021/07/17 00:49:32;;;;;;;4.43;3.93;;;19.60;99.90;;;;;;5037125;28;20183;-60
2021/07/17 00:51:58;;;;;;;4.17;3.80;;;19.60;99.90;;;;;;5036496;28;20168;-61
2021/07/17 00:54:28;;;;;;;3.80;3.50;;;19.50;99.90;;;;;;5036709;28;20172;-59
2021/07/17 00:56:54;;;;;;;3.77;3.53;;;19.50;99.90;;;;;;5036480;28;20241;-59
2021/07/17 00:59:25;;;;;;;3.97;3.67;;;19.50;99.90;;;;;;5036380;28;20186;-61
2021/07/17 01:01:52;;;;;;;4.07;3.67;;;19.50;99.90;;;;;;5036201;28;20206;-61
2021/07/17 01:04:18;;;;;;;4.20;3.80;;;19.50;99.90;;;;;;5036681;28;20168;-61
2021/07/17 01:06:45;;;;;;;5.17;4.17;;;19.50;99.90;;;;;;5036211;28;20662;-57
2021/07/17 01:09:10;;;;;;;4.37;3.97;;;19.40;99.90;;;;;;5036400;28;20254;-54
2021/07/17 01:11:40;;;;;;;3.90;3.60;;;19.50;99.90;;;;;;5036071;28;20532;-59
2021/07/17 01:14:06;;;;;;;4.23;3.93;;;19.50;99.90;;;;;;5035842;28;20179;-61
2021/07/17 01:16:33;;;;;;;3.90;3.60;;;19.40;99.90;;;;;;5036426;28;20203;-62
2021/07/17 01:18:59;;;;;;;4.30;3.90;;;19.40;99.90;;;;;;5034983;28;20212;-62
2021/07/17 01:21:26;;;;;;;4.53;3.83;;;19.40;99.90;;;;;;5036010;28;20199;-61
2021/07/17 01:23:52;;;;;;;4.27;3.80;;;19.30;99.90;;;;;;5035363;28;20179;-60
2021/07/17 01:26:18;;;;;;;4.60;4.20;;;19.30;99.90;;;;;;5035438;28;20176;-59
2021/07/17 01:28:43;;;;;;;4.37;3.97;;;19.30;99.90;;;;;;5035779;28;20231;-58
2021/07/17 01:31:09;;;;;;;4.17;3.87;;;19.30;99.90;;;;;;5035619;28;20172;-61
2021/07/17 01:33:36;;;;;;;5.67;4.50;;;19.30;99.90;;;;;;5036196;28;20195;-61
2021/07/17 01:36:02;;;;;;;4.17;3.87;;;19.30;99.90;;;;;;5035811;28;20619;-60
2021/07/17 01:38:28;;;;;;;5.10;4.60;;;19.30;99.90;;;;;;5035766;28;20200;-59
2021/07/17 01:40:54;;;;;;;6.43;4.60;;;19.20;99.90;;;;;;5035416;28;20230;-62
2021/07/17 01:43:19;;;;;;;5.30;4.90;;;19.20;99.90;;;;;;5035688;28;20204;-61
2021/07/17 01:45:45;;;;;;;5.30;4.87;;;19.10;99.90;;;;;;5035571;28;20176;-62
2021/07/17 01:48:12;;;;;;;4.77;4.37;;;19.10;99.90;;;;;;5035546;28;20350;-62
2021/07/17 01:50:40;;;;;;;5.70;4.80;;;18.90;99.90;;;;;;5035740;28;20195;-61
2021/07/17 01:53:07;;;;;;;4.87;4.47;;;18.80;99.90;;;;;;5035275;28;20187;-60
2021/07/17 01:55:34;;;;;;;5.63;4.90;;;18.60;99.90;;;;;;5035413;28;20180;-62
2021/07/17 01:58:01;;;;;;;33.20;7.70;;;18.60;99.90;;;;;;5035400;28;20246;-62
2021/07/17 02:00:27;;;;;;;5.80;5.20;;;18.60;99.90;;;;;;5035196;28;20182;-59
2021/07/17 02:02:53;;;;;;;5.30;4.90;;;18.60;99.90;;;;;;5035042;28;20242;-61
2021/07/17 02:05:21;;;;;;;5.50;5.00;;;18.70;99.90;;;;;;5035459;28;20226;-61
2021/07/17 02:07:47;;;;;;;5.40;4.90;;;18.70;99.90;;;;;;5035140;28;20191;-62
2021/07/17 02:10:19;;;;;;;5.03;4.63;;;18.60;99.90;;;;;;5035002;28;20186;-61
2021/07/17 02:13:05;;;;;;;5.37;4.83;;;18.60;99.90;;;;;;5035094;28;20180;-60
2021/07/17 02:15:41;;;;;;;4.73;4.33;;;18.60;99.90;;;;;;5035213;28;20165;-60
2021/07/17 02:18:07;;;;;;;5.63;5.07;;;18.50;99.90;;;;;;5035672;28;20195;-61
2021/07/17 02:20:33;;;;;;;6.43;5.77;;;18.60;99.90;;;;;;5034839;28;20190;-60
2021/07/17 02:22:59;;;;;;;6.60;5.90;;;18.60;99.90;;;;;;5034562;28;20200;-61
2021/07/17 02:25:25;;;;;;;6.83;6.03;;;18.70;99.90;;;;;;5034667;28;20174;-62
2021/07/17 02:27:51;;;;;;;7.20;6.47;;;18.70;99.90;;;;;;5033820;28;20192;-61
2021/07/17 02:30:16;;;;;;;8.40;7.67;;;18.80;99.90;;;;;;5034628;28;20181;-59
2021/07/17 02:32:42;;;;;;;6.43;5.83;;;18.80;99.90;;;;;;5035357;28;20279;-59
2021/07/17 02:35:08;;;;;;;9.00;7.60;;;18.70;99.90;;;;;;5035016;28;20176;-62
2021/07/17 02:37:33;;;;;;;7.00;6.40;;;18.70;99.90;;;;;;5034933;28;20215;-61
2021/07/17 02:39:59;;;;;;;6.30;5.70;;;18.80;99.90;;;;;;5034611;28;20183;-60
2021/07/17 02:42:25;;;;;;;6.50;5.40;;;18.70;99.90;;;;;;5034610;28;20206;-59
2021/07/17 02:44:50;;;;;;;6.00;5.50;;;18.60;99.90;;;;;;5034594;28;20180;-57
2021/07/17 02:47:16;;;;;;;5.67;5.17;;;18.60;99.90;;;;;;5034603;28;20777;-61
2021/07/17 02:49:43;;;;;;;7.87;5.97;;;18.30;99.90;;;;;;5034288;28;20182;-61
2021/07/17 02:52:08;;;;;;;26.63;6.97;;;18.10;99.90;;;;;;5034221;28;20188;-61
2021/07/17 02:54:34;;;;;;;6.00;5.40;;;17.80;99.90;;;;;;5034790;28;20182;-60
2021/07/17 02:57:00;;;;;;;13.73;5.70;;;17.70;99.90;;;;;;5033079;28;20559;-62
2021/07/17 02:59:25;;;;;;;6.47;5.47;;;17.60;99.90;;;;;;5034087;28;20180;-61
2021/07/17 03:01:51;;;;;;;5.80;5.30;;;17.60;99.90;;;;;;5033943;28;20203;-55
2021/07/17 03:04:16;;;;;;;5.80;5.30;;;17.60;99.90;;;;;;5034025;28;20174;-62
2021/07/17 03:06:42;;;;;;;6.30;5.80;;;17.80;99.90;;;;;;5034010;28;20234;-58
2021/07/17 03:09:07;;;;;;;6.10;5.47;;;17.90;99.90;;;;;;5034253;28;20188;-56
2021/07/17 03:11:33;;;;;;;5.57;5.17;;;17.90;99.90;;;;;;5033937;28;20187;-59
2021/07/17 03:14:00;;;;;;;5.23;4.83;;;17.80;99.90;;;;;;5034261;28;20176;-59
2021/07/17 03:16:26;;;;;;;5.20;4.70;;;17.80;99.90;;;;;;5033904;28;20270;-60
2021/07/17 03:18:52;;;;;;;5.23;4.83;;;18.00;99.90;;;;;;5034329;28;20285;-59
2021/07/17 03:21:18;;;;;;;8.60;5.10;;;18.10;99.90;;;;;;5033677;28;20255;-60
2021/07/17 03:23:44;;;;;;;28.40;5.97;;;18.20;99.90;;;;;;5033794;28;20172;-60
2021/07/17 03:26:09;;;;;;;37.83;6.90;;;18.10;99.90;;;;;;5034013;28;20181;-60
2021/07/17 03:28:35;;;;;;;15.57;6.63;;;17.80;99.90;;;;;;5015765;28;20210;-61
2021/07/17 03:31:01;;;;;;;6.10;5.60;;;17.50;99.90;;;;;;5014155;28;20179;-62
2021/07/17 03:33:27;;;;;;;5.80;5.37;;;17.60;99.90;;;;;;5014944;28;20208;-59
2021/07/17 03:35:52;;;;;;;5.93;5.17;;;17.60;99.90;;;;;;5014370;28;20254;-61
2021/07/17 03:38:18;;;;;;;6.40;5.80;;;17.70;99.90;;;;;;5013496;28;20561;-61
2021/07/17 03:40:44;;;;;;;7.20;6.10;;;17.70;99.90;;;;;;5014032;28;20233;-56
2021/07/17 03:43:11;;;;;;;6.90;5.33;;;17.70;99.90;;;;;;5014233;28;20207;-55
2021/07/17 03:45:36;;;;;;;5.60;5.20;;;17.60;99.90;;;;;;5014331;28;20173;-58
2021/07/17 03:48:02;;;;;;;5.40;5.00;;;17.60;99.90;;;;;;5013896;28;20222;-61
2021/07/17 03:50:27;;;;;;;5.17;4.77;;;17.70;99.90;;;;;;5013891;28;20256;-60
2021/07/17 03:52:53;;;;;;;5.30;4.90;;;17.90;99.90;;;;;;5013659;28;20666;-61
2021/07/17 03:55:18;;;;;;;5.40;4.90;;;18.10;99.90;;;;;;5014403;28;20258;-61
2021/07/17 03:57:44;;;;;;;6.70;6.03;;;18.20;99.90;;;;;;5013858;28;20223;-59
2021/07/17 04:00:10;;;;;;;6.57;5.97;;;18.40;99.90;;;;;;5013767;28;20593;-60
2021/07/17 04:02:42;;;;;;;6.80;6.20;;;18.50;99.90;;;;;;5014030;28;20262;-61
2021/07/17 04:05:10;;;;;;;7.50;6.80;;;18.50;99.90;;;;;;5014000;28;20194;-62
2021/07/17 04:07:35;;;;;;;6.83;6.23;;;18.30;99.90;;;;;;5013932;28;20197;-59
2021/07/17 04:10:02;;;;;;;7.87;7.27;;;18.20;99.90;;;;;;5013897;28;20243;-60
2021/07/17 04:12:28;;;;;;;7.77;7.00;;;18.20;99.90;;;;;;5013537;28;20173;-57
2021/07/17 04:14:53;;;;;;;7.20;6.50;;;18.30;99.90;;;;;;5013687;28;20180;-62
2021/07/17 04:17:19;;;;;;;6.40;5.90;;;18.30;99.90;;;;;;5013341;28;20196;-61
2021/07/17 04:19:45;;;;;;;6.60;6.00;;;18.20;99.90;;;;;;5013746;28;20256;-60
2021/07/17 04:22:10;;;;;;;6.43;5.83;;;18.20;99.90;;;;;;5013986;28;20212;-58
2021/07/17 04:24:36;;;;;;;6.00;5.50;;;18.20;99.90;;;;;;5013853;28;20541;-62
2021/07/17 04:27:01;;;;;;;5.50;5.10;;;18.20;99.90;;;;;;5013553;28;20576;-61
2021/07/17 04:29:27;;;;;;;6.40;5.90;;;18.20;99.90;;;;;;5014146;28;20200;-60
2021/07/17 04:31:52;;;;;;;9.10;6.07;;;18.20;99.90;;;;;;5013438;28;20231;-60
2021/07/17 04:34:18;;;;;;;6.23;5.63;;;18.20;99.90;;;;;;5028732;28;20177;-61
2021/07/17 04:36:43;;;;;;;19.73;6.23;;;18.20;99.90;;;;;;5013846;28;20184;-62
2021/07/17 04:39:09;;;;;;;6.43;5.93;;;18.10;99.90;;;;;;5013732;28;20184;-61
2021/07/17 04:41:34;;;;;;;6.60;6.10;;;17.90;99.90;;;;;;5013410;28;20204;-61
2021/07/17 04:44:00;;;;;;;7.43;6.63;;;18.00;99.90;;;;;;5013499;28;20175;-61
2021/07/17 04:46:25;;;;;;;6.13;5.63;;;17.90;99.90;;;;;;5013156;28;20198;-57
2021/07/17 04:48:51;;;;;;;6.67;6.17;;;18.00;99.90;;;;;;5013280;28;20199;-62
2021/07/17 04:51:16;;;;;;;6.60;6.10;;;18.10;99.90;;;;;;5016523;28;20173;-60
2021/07/17 04:53:42;;;;;;;6.97;6.37;;;18.10;99.90;;;;;;5017186;28;20185;-59
2021/07/17 04:56:07;;;;;;;7.63;6.93;;;18.10;99.90;;;;;;5015501;28;20180;-62
2021/07/17 04:58:33;;;;;;;7.67;7.07;;;18.20;99.90;;;;;;5017003;28;20207;-60
2021/07/17 05:00:58;;;;;;;8.53;7.83;;;18.30;99.90;;;;;;5019171;28;20180;-55
2021/07/17 05:03:24;;;;;;;7.57;6.97;;;18.30;99.90;;;;;;5036519;28;20262;-55
2021/07/17 05:05:50;;;;;;;9.00;8.20;;;18.30;99.90;;;;;;5036578;28;20620;-61
2021/07/17 05:08:16;;;;;;;8.17;7.40;;;18.30;99.90;;;;;;5036440;28;20196;-61
2021/07/17 05:10:41;;;;;;;7.97;7.27;;;18.40;99.90;;;;;;5036063;28;20194;-59
2021/07/17 05:13:14;;;;;;;8.20;7.43;;;18.60;99.90;;;;;;5036207;28;20580;-55
2021/07/17 05:15:40;;;;;;;8.77;7.97;;;18.70;99.90;;;;;;5036538;28;20176;-61
2021/07/17 05:18:05;;;;;;;8.40;7.67;;;18.70;99.90;;;;;;5036436;28;20203;-62
2021/07/17 05:20:31;;;;;;;8.80;8.00;;;18.70;99.90;;;;;;5036323;28;20275;-58
2021/07/17 05:22:57;;;;;;;10.37;8.63;;;18.80;99.90;;;;;;5036178;28;20295;-57
2021/07/17 05:25:22;;;;;;;9.20;8.27;;;18.80;99.90;;;;;;5036597;28;20181;-59
2021/07/17 05:27:48;;;;;;;9.87;8.87;;;18.80;99.90;;;;;;5035261;28;20195;-58
2021/07/17 05:30:14;;;;;;;10.20;7.80;;;18.90;99.90;;;;;;5035085;28;20617;-62
2021/07/17 05:32:40;;;;;;;9.33;8.53;;;19.10;99.90;;;;;;5035709;28;20555;-62
2021/07/17 05:35:06;;;;;;;8.33;7.63;;;19.20;99.90;;;;;;5034797;28;20748;-60
2021/07/17 05:37:32;;;;;;;8.77;7.97;;;19.50;99.90;;;;;;5035788;28;20290;-59
2021/07/17 05:39:57;;;;;;;9.50;8.60;;;19.80;99.90;;;;;;5036245;28;20310;-61
2021/07/17 05:42:24;;;;;;;8.47;7.73;;;20.00;99.90;;;;;;5033227;28;20345;-61
2021/07/17 05:44:50;;;;;;;9.17;8.37;;;20.10;99.90;;;;;;5035151;28;20272;-62
2021/07/17 05:47:15;;;;;;;7.97;7.23;;;20.10;99.90;;;;;;5033761;28;20199;-60
2021/07/17 05:49:42;;;;;;;9.23;8.33;;;20.20;99.90;;;;;;5034098;28;20517;-60
2021/07/17 05:52:08;;;;;;;8.87;8.07;;;20.10;99.90;;;;;;5035773;28;20187;-59
2021/07/17 05:54:33;;;;;;;8.87;8.07;;;20.00;99.90;;;;;;5035175;28;20184;-57
2021/07/17 05:56:59;;;;;;;8.90;8.10;;;19.90;99.90;;;;;;5034640;28;20211;-56
2021/07/17 05:59:24;;;;;;;9.87;9.00;;;19.60;99.90;;;;;;5035549;28;20180;-61
2021/07/17 06:01:50;;;;;;;10.70;9.70;;;19.50;99.90;;;;;;5033457;28;20258;-62
2021/07/17 06:04:15;;;;;;;10.83;9.77;;;19.50;99.90;;;;;;5035532;28;20548;-61
2021/07/17 06:06:41;;;;;;;10.43;9.53;;;19.60;99.90;;;;;;5035119;28;20256;-61
2021/07/17 06:09:06;;;;;;;9.73;8.83;;;19.80;99.90;;;;;;5035109;28;20199;-62
2021/07/17 06:11:32;;;;;;;10.20;9.30;;;19.90;99.90;;;;;;5034944;28;20183;-57
2021/07/17 06:13:57;;;;;;;10.93;9.40;;;19.90;99.90;;;;;;5035653;28;20187;-60
2021/07/17 06:16:23;;;;;;;10.00;9.00;;;19.90;99.90;;;;;;5033372;28;20198;-61
2021/07/17 06:18:48;;;;;;;10.90;9.90;;;19.90;99.90;;;;;;5034865;28;20196;-61
2021/07/17 06:21:14;;;;;;;9.93;9.03;;;19.80;99.90;;;;;;5034731;28;20227;-57
2021/07/17 06:23:40;;;;;;;9.57;8.73;;;20.00;99.90;;;;;;5034015;28;20164;-60
2021/07/17 06:26:06;;;;;;;9.47;8.67;;;20.10;99.90;;;;;;5035310;28;20196;-56
2021/07/17 06:28:31;;;;;;;10.83;9.40;;;20.20;99.90;;;;;;5034695;28;20198;-56
2021/07/17 06:30:57;;;;;;;10.13;9.13;;;20.20;99.90;;;;;;5034476;28;20169;-62
2021/07/17 06:33:23;;;;;;;11.50;10.30;;;20.30;99.90;;;;;;5034707;28;20176;-62
2021/07/17 06:35:49;;;;;;;10.73;9.63;;;20.30;99.90;;;;;;5034994;28;20520;-62
2021/07/17 06:38:14;;;;;;;10.60;8.93;;;20.30;99.90;;;;;;5034462;28;20690;-62
2021/07/17 06:40:40;;;;;;;9.43;8.53;;;20.40;99.90;;;;;;5034798;28;20698;-62
2021/07/17 06:43:06;;;;;;;10.00;9.20;;;20.40;99.90;;;;;;5034212;28;20231;-58
2021/07/17 06:45:31;;;;;;;9.55;8.60;;;20.20;99.90;;;;;;5034529;28;20192;-58
2021/07/17 06:47:57;;;;;;;10.85;9.65;;;20.10;99.90;;;;;;5034470;28;20188;-59
2021/07/17 06:50:22;;;;;;;9.77;8.77;;;20.20;99.90;;;;;;5034436;28;20176;-60
2021/07/17 06:52:49;;;;;;;9.13;8.23;;;20.40;99.90;;;;;;5034506;28;20564;-59
2021/07/17 06:55:15;;;;;;;9.80;8.82;;;20.60;99.90;;;;;;5033018;28;20592;-62
2021/07/17 06:57:41;;;;;;;9.00;8.10;;;20.60;99.90;;;;;;5034770;28;20194;-60
2021/07/17 07:00:13;;;;;;;9.55;8.63;;;20.70;99.90;;;;;;5034303;28;20183;-56
2021/07/17 07:02:39;;;;;;;10.20;8.77;;;20.80;99.90;;;;;;5034156;28;20208;-61
2021/07/17 07:05:06;;;;;;;10.32;9.15;;;20.60;99.90;;;;;;5034191;28;20213;-62
2021/07/17 07:07:31;;;;;;;12.57;9.50;;;20.70;99.90;;;;;;5034603;28;20190;-61
2021/07/17 07:09:57;;;;;;;12.15;8.93;;;20.70;99.90;;;;;;5034063;28;20190;-62
2021/07/17 07:12:23;;;;;;;10.05;9.10;;;20.60;99.90;;;;;;5033326;28;20215;-62
2021/07/17 07:14:48;;;;;;;12.05;9.60;;;20.50;99.90;;;;;;5034423;28;20536;-60
2021/07/17 07:17:14;;;;;;;10.55;8.93;;;20.30;99.90;;;;;;5034019;28;20610;-61
2021/07/17 07:19:39;;;;;;;13.82;9.77;;;20.20;99.90;;;;;;5034035;28;20190;-54
2021/07/17 07:22:05;;;;;;;10.40;9.40;;;20.20;99.90;;;;;;5033704;28;20275;-55
2021/07/17 07:24:31;;;;;;;10.52;9.02;;;20.40;99.90;;;;;;5033810;28;20575;-62
2021/07/17 07:26:57;;;;;;;10.00;9.00;;;20.70;99.90;;;;;;5033508;28;20540;-62
2021/07/17 07:29:24;;;;;;;10.88;9.77;;;21.00;99.90;;;;;;5033765;28;20173;-60
2021/07/17 07:31:53;;;;;;;10.25;9.20;;;21.30;99.90;;;;;;5033085;28;20178;-62
2021/07/17 07:34:20;;;;;;;13.57;9.38;;;21.60;99.90;;;;;;5034140;28;20638;-60
2021/07/17 07:36:49;;;;;;;10.73;9.15;;;21.80;99.90;;;;;;5033865;28;20176;-61
2021/07/17 07:39:15;;;;;;;10.35;9.07;;;21.80;99.90;;;;;;5033845;28;20234;-60
2021/07/17 07:41:41;;;;;;;10.48;8.48;;;22.00;99.90;;;;;;5033449;28;20206;-55
2021/07/17 07:44:07;;;;;;;8.93;8.02;;;22.20;99.90;;;;;;5033706;28;20176;-62
2021/07/17 07:46:34;;;;;;;10.07;9.00;;;22.20;99.90;;;;;;5033628;28;20255;-57
2021/07/17 07:49:00;;;;;;;9.57;8.57;;;22.30;99.90;;;;;;5033603;28;20540;-59
2021/07/17 07:51:26;;;;;;;10.73;8.40;;;22.30;99.90;;;;;;5033364;28;20178;-56
2021/07/17 07:53:53;;;;;;;12.75;8.55;;;22.30;99.90;;;;;;5034185;28;20168;-58
2021/07/17 07:56:19;;;;;;;9.77;8.77;;;22.20;99.90;;;;;;5033899;28;20175;-60
2021/07/17 07:58:44;;;;;;;10.23;8.30;;;22.40;99.90;;;;;;5033584;28;20192;-60
2021/07/17 08:01:10;;;;;;;9.95;8.60;;;22.50;99.90;;;;;;5019315;28;20580;-62
2021/07/17 08:03:35;;;;;;;9.63;8.63;;;22.70;99.90;;;;;;5014171;28;20204;-62
2021/07/17 08:06:01;;;;;;;11.35;9.05;;;22.90;99.90;;;;;;5012307;28;20268;-59
2021/07/17 08:08:27;;;;;;;9.25;8.45;;;22.90;99.90;;;;;;5013621;28;20185;-61
2021/07/17 08:10:52;;;;;;;9.57;8.70;;;22.80;99.90;;;;;;5012928;28;20157;-60
2021/07/17 08:13:18;;;;;;;9.85;8.95;;;22.80;99.90;;;;;;5013020;28;20263;-58
2021/07/17 08:15:44;;;;;;;10.13;9.07;;;22.80;99.90;;;;;;5014193;28;20173;-56
2021/07/17 08:18:11;;;;;;;10.07;8.50;;;22.80;99.90;;;;;;5013439;28;20292;-58
2021/07/17 08:20:37;;;;;;;9.60;8.70;;;22.70;99.90;;;;;;5013831;28;20179;-60
2021/07/17 08:23:02;;;;;;;10.45;9.45;;;22.80;99.90;;;;;;5013381;28;20200;-61
2021/07/17 08:25:28;;;;;;;9.38;8.40;;;22.80;99.90;;;;;;5017977;28;20169;-60
2021/07/17 08:27:53;;;;;;;10.45;9.45;;;22.90;99.90;;;;;;5017407;28;20718;-62
2021/07/17 08:30:19;;;;;;;11.77;8.95;;;23.00;99.90;;;;;;5017199;28;20208;-61
2021/07/17 08:32:44;;;;;;;9.40;8.52;;;23.10;99.90;;;;;;5032371;28;20180;-58
2021/07/17 08:35:10;;;;;;;10.60;9.57;;;23.20;99.90;;;;;;5017729;28;20720;-62
2021/07/17 08:37:36;;;;;;;11.18;10.02;;;23.40;99.90;;;;;;5016078;28;20343;-60
2021/07/17 08:40:06;;;;;;;10.55;9.45;;;23.40;99.90;;;;;;5017516;28;20212;-60
2021/07/17 08:42:35;;;;;;;11.52;10.32;;;23.50;99.90;;;;;;5017013;28;20192;-60
2021/07/17 08:45:04;;;;;;;10.85;9.85;;;23.50;99.90;;;;;;5017348;28;20169;-61
2021/07/17 08:47:36;;;;;;;9.63;8.60;;;23.60;99.90;;;;;;5016682;28;20545;-62
2021/07/17 08:50:03;;;;;;;9.82;7.70;;;24.10;99.90;;;;;;5017296;28;20648;-62
2021/07/17 08:52:31;;;;;;;7.63;7.00;;;24.40;99.90;;;;;;5016631;28;20185;-60
2021/07/17 08:55:03;;;;;;;8.45;6.93;;;25.00;99.90;;;;;;5017024;28;20626;-60
2021/07/17 08:57:37;;;;;;;8.00;7.18;;;25.40;99.90;;;;;;5016779;28;20235;-60
2021/07/17 09:00:09;;;;;;;7.85;7.00;;;25.30;99.90;;;;;;5017313;28;20179;-60
2021/07/17 09:02:39;;;;;;;8.00;7.10;;;25.50;99.90;;;;;;5016282;28;20197;-61
2021/07/17 09:05:11;;;;;;;8.30;7.50;;;25.70;99.90;;;;;;5016664;28;20165;-62
2021/07/17 09:07:37;;;;;;;8.10;7.28;;;25.80;99.90;;;;;;5016795;28;20275;-60
2021/07/17 09:10:33;;;;;;;8.15;7.35;;;25.50;99.90;;;;;;5017060;28;20216;-60
2021/07/17 09:13:15;;;;;;;9.57;8.10;;;25.10;99.90;;;;;;5016544;28;20176;-60
2021/07/17 09:15:55;;;;;;;8.40;7.60;;;24.80;99.90;;;;;;5016707;28;20177;-61
2021/07/17 09:18:26;;;;;;;9.05;7.63;;;24.80;99.90;;;;;;5014525;28;20691;-60
2021/07/17 09:21:06;;;;;;;9.73;7.75;;;24.90;99.90;;;;;;5016324;28;20175;-63
2021/07/17 09:23:36;;;;;;;8.73;7.38;;;24.70;99.90;;;;;;5015536;28;20244;-61
2021/07/17 09:26:22;;;;;;;7.97;7.18;;;25.00;99.90;;;;;;5015897;28;20177;-62
2021/07/17 09:29:02;;;;;;;7.72;6.93;;;25.50;99.90;;;;;;5016363;28;20514;-62
2021/07/17 09:31:31;;;;;;;8.07;7.28;;;25.70;99.90;;;;;;5015932;28;20222;-62
2021/07/17 09:34:08;;;;;;;7.75;7.03;;;26.00;99.90;;;;;;5016916;28;20308;-60
2021/07/17 09:36:48;;;;;;;7.40;6.80;;;26.20;99.90;;;;;;5034847;28;20494;-62
2021/07/17 09:39:18;;;;;;;7.85;7.10;;;26.30;99.90;;;;;;5035316;28;20164;-62
2021/07/17 09:41:59;;;;;;;6.85;6.25;;;26.20;99.90;;;;;;5034694;28;20521;-63
2021/07/17 09:44:26;;;;;;;6.80;6.20;;;26.30;99.90;;;;;;5034603;28;20210;-63
2021/07/17 09:46:52;;;;;;;7.13;6.50;;;26.40;99.90;;;;;;5034344;28;20636;-60
2021/07/17 09:49:19;;;;;;;7.32;6.20;;;26.20;99.90;;;;;;5035507;28;20191;-59
2021/07/17 09:51:45;;;;;;;6.75;5.95;;;26.20;99.90;;;;;;5035375;28;20176;-62
2021/07/17 09:54:11;;;;;;;6.85;6.22;;;26.10;99.90;;;;;;5035748;28;20210;-63
2021/07/17 09:56:40;;;;;;;6.45;5.85;;;26.20;99.90;;;;;;5035454;28;20192;-60
2021/07/17 09:59:11;;;;;;;6.72;6.07;;;26.50;99.90;;;;;;5035352;28;20238;-62
2021/07/17 10:01:39;;;;;;;7.32;6.50;;;26.80;99.90;;;;;;5035156;28;20187;-56
2021/07/17 10:04:08;;;;;;;8.63;7.03;;;27.00;99.90;;;;;;5035395;28;20184;-60
2021/07/17 10:06:45;;;;;;;8.10;7.30;;;27.30;99.90;;;;;;5035070;28;20198;-60
2021/07/17 10:09:16;;;;;;;7.28;6.60;;;27.50;99.90;;;;;;5033630;28;20183;-61
2021/07/17 10:11:44;;;;;;;7.50;6.80;;;27.30;99.90;;;;;;5034763;28;20186;-62
2021/07/17 10:14:16;;;;;;;7.53;6.82;;;27.60;99.90;;;;;;5035237;28;20183;-58
2021/07/17 10:16:42;;;;;;;7.55;6.88;;;27.90;99.90;;;;;;5032355;28;20218;-61
2021/07/17 10:19:07;;;;;;;7.13;6.53;;;28.10;99.90;;;;;;5032349;28;20204;-63
2021/07/17 10:21:35;;;;;;;7.63;6.90;;;28.00;99.90;;;;;;5034557;28;20222;-61
2021/07/17 10:24:01;;;;;;;7.15;6.55;;;28.00;99.90;;;;;;5034594;28;20179;-63
2021/07/17 10:26:27;;;;;;;8.32;6.90;;;28.20;99.90;;;;;;5028377;28;20199;-61
2021/07/17 10:28:56;;;;;;;8.65;7.85;;;28.40;99.90;;;;;;5033543;28;20203;-62
2021/07/17 10:31:22;;;;;;;9.40;8.60;;;28.30;99.90;;;;;;5033461;28;20242;-53
2021/07/17 10:33:48;;;;;;;10.00;9.00;;;27.90;99.90;;;;;;5033607;28;20208;-62
2021/07/17 10:36:15;;;;;;;10.02;9.13;;;26.90;99.90;;;;;;5034040;28;20720;-62
2021/07/17 10:38:44;;;;;;;10.98;9.88;;;26.50;99.90;;;;;;5034489;28;20192;-62
2021/07/17 10:41:14;;;;;;;10.35;9.38;;;26.30;99.90;;;;;;5034278;28;20651;-62
2021/07/17 10:43:41;;;;;;;10.05;9.05;;;26.00;99.90;;;;;;5032702;28;20679;-58
2021/07/17 10:46:27;;;;;;;11.77;10.18;;;25.70;99.90;;;;;;5032918;28;20187;-59
2021/07/17 10:48:54;;;;;;;11.10;10.00;;;25.50;99.90;;;;;;5014185;28;20306;-61
2021/07/17 10:51:35;;;;;;;10.55;9.55;;;25.20;99.90;;;;;;5022719;28;20188;-63
2021/07/17 10:54:07;;;;;;;11.02;9.93;;;24.70;99.90;;;;;;5029370;28;20255;-59
2021/07/17 10:56:35;;;;;;;11.75;10.60;;;24.60;99.90;;;;;;5021182;28;20176;-59
2021/07/17 10:59:12;;;;;;;11.38;10.27;;;24.50;99.90;;;;;;5024350;28;20235;-54
2021/07/17 11:02:02;;;;;;;11.07;9.98;;;24.50;99.90;;;;;;5030858;28;20199;-54
2021/07/17 11:04:44;;;;;;;10.70;9.60;;;24.60;99.90;;;;;;5030477;28;20191;-59
2021/07/17 11:07:30;;;;;;;10.20;9.30;;;24.80;99.90;;;;;;5025522;28;20192;-56
2021/07/17 11:09:56;;;;;;;10.02;9.18;;;25.00;99.90;;;;;;5032913;28;20760;-53
2021/07/17 11:12:33;;;;;;;11.15;9.55;;;25.00;99.90;;;;;;5033526;28;20220;-60
2021/07/17 11:15:05;;;;;;;9.80;8.90;;;25.00;99.90;;;;;;5025934;28;20200;-55
2021/07/17 11:17:53;;;;;;;9.65;8.85;;;25.20;99.90;;;;;;5033370;28;20196;-53
2021/07/17 11:20:31;;;;;;;8.95;8.15;;;25.60;99.90;;;;;;5030959;28;20163;-56
2021/07/17 11:23:01;;;;;;;8.05;7.25;;;26.20;99.90;;;;;;5033277;28;20233;-61
2021/07/17 11:25:26;;;;;;;7.75;7.00;;;26.60;99.90;;;;;;5032786;28;20195;-58
2021/07/17 11:27:52;;;;;;;6.50;5.90;;;27.00;99.90;;;;;;5033554;28;20188;-55
2021/07/17 11:30:19;;;;;;;5.90;5.40;;;27.30;99.90;;;;;;5032916;28;20195;-58
2021/07/17 11:33:04;;;;;;;7.10;5.30;;;27.30;99.90;;;;;;5020930;28;20188;-54
2021/07/17 11:35:37;;;;;;;5.80;5.20;;;27.40;99.90;;;;;;5013858;28;20176;-61
2021/07/17 11:38:05;;;;;;;5.63;5.10;;;27.30;99.90;;;;;;5012506;28;20204;-58
2021/07/17 11:40:31;;;;;;;6.00;5.40;;;27.30;99.90;;;;;;5027328;28;20192;-54
2021/07/17 11:43:01;;;;;;;6.25;5.25;;;27.60;99.90;;;;;;5032848;28;20210;-60
2021/07/17 11:45:27;;;;;;;5.68;5.18;;;27.80;99.90;;;;;;5032537;28;20238;-61
2021/07/17 11:47:52;;;;;;;6.05;5.03;;;28.10;99.90;;;;;;5032634;28;20591;-52
2021/07/17 11:50:21;;;;;;;6.22;4.93;;;28.30;99.90;;;;;;5047720;28;20188;-61
2021/07/17 11:52:47;;;;;;;6.35;5.68;;;28.60;99.90;;;;;;5033048;28;20704;-55
2021/07/17 11:55:16;;;;;;;5.60;5.10;;;28.90;99.90;;;;;;5033005;28;20281;-57
2021/07/17 11:57:45;;;;;;;5.20;4.70;;;29.00;99.90;;;;;;5029969;28;20196;-58
2021/07/17 12:00:16;;;;;;;5.43;4.93;;;29.20;99.90;;;;;;5016792;28;20177;-56
2021/07/17 12:02:50;;;;;;;7.57;4.80;;;29.20;99.90;;;;;;5017070;28;20216;-60
2021/07/17 12:05:17;;;;;;;5.05;4.55;;;29.20;99.90;;;;;;5033327;28;20184;-56
2021/07/17 12:07:45;;;;;;;5.90;5.13;;;29.10;99.90;;;;;;5018113;28;20232;-57
2021/07/17 12:10:11;;;;;;;5.30;4.80;;;29.30;99.90;;;;;;5016024;28;20254;-58
2021/07/17 12:12:43;;;;;;;5.63;5.07;;;29.40;99.90;;;;;;5028849;28;20180;-60
2021/07/17 12:15:17;;;;;;;5.38;4.88;;;29.70;99.90;;;;;;5036284;28;20244;-58
2021/07/17 12:18:07;;;;;;;5.57;5.07;;;29.60;99.90;;;;;;5036596;28;20214;-57
2021/07/17 12:20:37;;;;;;;5.15;4.70;;;29.30;99.90;;;;;;5035526;28;20539;-58
2021/07/17 12:23:18;;;;;;;5.45;4.95;;;29.30;99.90;;;;;;5036219;28;20258;-59
2021/07/17 12:25:52;;;;;;;5.65;5.05;;;29.20;99.90;;;;;;5035978;28;20152;-60
2021/07/17 12:28:25;;;;;;;5.32;4.82;;;29.20;99.90;;;;;;5036235;28;20752;-58
2021/07/17 12:30:52;;;;;;;5.25;4.75;;;29.20;99.90;;;;;;5036273;28;20164;-59
2021/07/17 12:33:26;;;;;;;5.45;4.95;;;28.90;99.90;;;;;;5036083;28;20159;-60
2021/07/17 12:36:05;;;;;;;5.78;4.80;;;28.90;99.90;;;;;;5037071;28;20663;-57
2021/07/17 12:38:51;;;;;;;5.25;4.72;;;29.10;99.90;;;;;;5036488;28;20195;-56
2021/07/17 12:41:34;;;;;;;5.75;5.20;;;29.30;99.90;;;;;;5035691;28;20186;-60
2021/07/17 12:44:02;;;;;;;5.95;4.70;;;29.30;99.90;;;;;;5036856;28;20205;-57
2021/07/17 12:46:34;;;;;;;5.70;5.20;;;29.20;99.90;;;;;;5036827;28;20164;-62
2021/07/17 12:49:01;;;;;;;6.15;4.50;;;29.20;99.90;;;;;;5036777;28;20195;-59